createdAt,value
2019-04-29T00:00:43.676Z,14.23
2019-04-29T00:05:44.967Z,15.93
2019-04-29T00:10:46.235Z,16.50
2019-04-29T00:15:47.481Z,15.10
2019-04-29T00:20:49.049Z,13.87
2019-04-29T00:25:51.587Z,14.90
2019-04-29T00:30:52.836Z,14.17
2019-04-29T00:35:54.101Z,13.23
2019-04-29T00:40:55.392Z,14.70
2019-04-29T00:45:56.686Z,13.93
2019-04-29T00:50:58.041Z,14.77
2019-04-29T00:55:59.490Z,14.50
2019-04-29T01:01:00.854Z,13.63
2019-04-29T01:06:02.232Z,15.73
2019-04-29T01:11:03.490Z,15.37
2019-04-29T01:16:04.829Z,14.17
2019-04-29T01:21:06.086Z,12.67
2019-04-29T01:26:07.315Z,13.63
2019-04-29T01:31:08.571Z,14.47
2019-04-29T01:36:09.808Z,12.83
2019-04-29T01:41:11.185Z,12.57
2019-04-29T01:46:13.297Z,12.23
2019-04-29T01:51:14.611Z,12.63
2019-04-29T01:56:15.897Z,12.97
2019-04-29T02:01:17.367Z,12.73
2019-04-29T02:06:18.623Z,13.93
2019-04-29T02:11:19.914Z,12.40
2019-04-29T02:16:21.411Z,12.87
2019-04-29T02:21:22.748Z,11.47
2019-04-29T02:26:23.993Z,14.10
2019-04-29T02:31:25.247Z,13.80
2019-04-29T02:36:29.915Z,13.47
2019-04-29T02:41:29.659Z,13.70
2019-04-29T02:46:30.901Z,12.23
2019-04-29T02:51:32.295Z,11.13
2019-04-29T02:56:33.522Z,10.27
2019-04-29T03:01:34.781Z,11.77
2019-04-29T03:06:36.196Z,11.60
2019-04-29T03:11:37.498Z,11.37
2019-04-29T03:16:38.851Z,11.77
2019-04-29T03:21:40.138Z,9.63
2019-04-29T03:26:41.374Z,10.50
2019-04-29T03:31:42.821Z,11.37
2019-04-29T03:36:44.160Z,11.17
2019-04-29T03:41:45.521Z,10.40
2019-04-29T03:46:46.885Z,10.90
2019-04-29T03:51:48.149Z,12.23
2019-04-29T03:56:49.493Z,10.40
2019-04-29T04:01:50.879Z,11.13
2019-04-29T04:06:52.173Z,10.53
2019-04-29T04:11:53.544Z,11.70
2019-04-29T04:16:54.791Z,11.77
2019-04-29T04:21:56.064Z,12.40
2019-04-29T04:26:57.329Z,10.47
2019-04-29T04:31:58.639Z,11.00
2019-04-29T04:37:00.533Z,15.13
2019-04-29T04:42:01.997Z,13.77
2019-04-29T04:47:03.257Z,13.57
2019-04-29T04:52:04.702Z,14.07
2019-04-29T04:57:06.203Z,13.80
2019-04-29T05:02:07.435Z,12.07
2019-04-29T05:07:08.948Z,11.37
2019-04-29T05:12:10.266Z,11.87
2019-04-29T05:17:11.559Z,11.40
2019-04-29T05:22:12.783Z,13.73
2019-04-29T05:27:14.145Z,13.57
2019-04-29T05:32:15.379Z,12.30
2019-04-29T05:37:16.871Z,13.23
2019-04-29T05:42:18.352Z,14.40
2019-04-29T05:47:19.717Z,14.67
2019-04-29T05:52:21.168Z,13.37
2019-04-29T05:57:25.389Z,15.50
2019-04-29T06:02:33.576Z,16.37
2019-04-29T06:07:29.158Z,16.67
2019-04-29T06:12:30.629Z,17.30
2019-04-29T06:17:32.059Z,18.30
2019-04-29T06:22:33.531Z,19.63
2019-04-29T06:27:34.775Z,19.83
2019-04-29T06:32:36.153Z,20.10
2019-04-29T06:37:37.485Z,19.83
2019-04-29T06:42:38.859Z,25.17
2019-04-29T06:47:40.345Z,25.03
2019-04-29T06:52:41.591Z,23.03
2019-04-29T06:57:43.033Z,24.67
2019-04-29T07:02:45.588Z,24.43
2019-04-29T07:07:47.471Z,24.90
2019-04-29T07:12:48.779Z,25.10
2019-04-29T07:17:50.009Z,26.37
2019-04-29T07:22:51.499Z,25.40
2019-04-29T07:27:52.848Z,23.50
2019-04-29T07:32:54.321Z,23.77
2019-04-29T07:37:55.955Z,25.20
2019-04-29T07:42:57.329Z,23.60
2019-04-29T07:48:04.259Z,22.73
2019-04-29T07:53:02.025Z,21.80
2019-04-29T07:58:03.407Z,22.50
2019-04-29T08:03:05.520Z,17.20
2019-04-29T08:08:06.765Z,17.03
2019-04-29T08:13:08.036Z,16.00
2019-04-29T08:18:11.394Z,15.17
2019-04-29T08:23:12.742Z,16.87
2019-04-29T08:28:14.199Z,17.43
2019-04-29T08:33:15.569Z,18.93
2019-04-29T08:38:17.080Z,18.20
2019-04-29T08:43:20.559Z,18.83
2019-04-29T08:48:21.809Z,17.60
2019-04-29T08:53:23.332Z,18.60
2019-04-29T08:58:24.731Z,18.55
2019-04-29T09:03:39.548Z,19.53
2019-04-29T09:08:33.000Z,19.20
2019-04-29T09:13:32.739Z,16.80
2019-04-29T09:18:34.431Z,19.00
2019-04-29T09:23:35.803Z,18.98
2019-04-29T09:28:37.054Z,20.05
2019-04-29T09:33:38.318Z,18.42
2019-04-29T09:38:39.740Z,17.48
2019-04-29T09:43:41.140Z,19.25
2019-04-29T09:48:42.508Z,18.90
2019-04-29T09:53:43.905Z,19.30
2019-04-29T09:58:45.516Z,17.65
2019-04-29T10:03:46.918Z,15.32
2019-04-29T10:08:48.412Z,18.35
2019-04-29T10:13:49.802Z,19.05
2019-04-29T10:18:51.288Z,17.67
2019-04-29T10:23:52.674Z,16.95
2019-04-29T10:28:54.202Z,16.97
2019-04-29T10:33:56.515Z,16.50
2019-04-29T10:38:58.281Z,15.53
2019-04-29T10:43:59.638Z,14.73
2019-04-29T10:49:03.572Z,14.35
2019-04-29T10:54:04.665Z,14.53
2019-04-29T10:59:09.091Z,14.70
2019-04-29T11:04:09.302Z,13.48
2019-04-29T11:09:14.502Z,14.38
2019-04-29T11:14:13.746Z,15.60
2019-04-29T11:19:14.997Z,15.63
2019-04-29T11:24:16.580Z,15.00
2019-04-29T11:29:22.233Z,12.70
2019-04-29T11:34:21.192Z,12.68
2019-04-29T11:39:22.678Z,11.28
2019-04-29T11:44:26.611Z,10.32
2019-04-29T11:49:27.416Z,10.60
2019-04-29T11:54:28.859Z,9.73
2019-04-29T11:59:30.667Z,10.85
2019-04-29T12:04:33.507Z,10.28
2019-04-29T12:09:35.268Z,9.28
2019-04-29T12:14:37.933Z,8.23
2019-04-29T12:19:40.068Z,9.50
2019-04-29T12:24:41.354Z,9.65
2019-04-29T12:29:42.634Z,10.00
2019-04-29T12:34:43.979Z,10.70
2019-04-29T12:39:45.497Z,10.48
2019-04-29T12:44:46.866Z,10.38
2019-04-29T12:49:48.295Z,10.32
2019-04-29T12:54:49.750Z,9.33
2019-04-29T12:59:54.269Z,10.10
2019-04-29T13:04:54.215Z,9.60
2019-04-29T13:09:55.393Z,8.70
2019-04-29T13:15:03.149Z,8.90
2019-04-29T13:20:11.643Z,8.98
2019-04-29T13:25:15.592Z,8.53
2019-04-29T13:30:16.426Z,7.40
2019-04-29T13:35:17.979Z,7.65
2019-04-29T13:40:19.452Z,8.40
2019-04-29T13:45:24.967Z,7.90
2019-04-29T13:50:38.785Z,8.43
2019-04-29T13:55:47.105Z,7.25
2019-04-29T14:00:30.806Z,8.08
2019-04-29T14:05:32.518Z,8.23
2019-04-29T14:10:35.376Z,8.13
2019-04-29T14:15:40.309Z,7.83
2019-04-29T14:20:40.319Z,8.85
2019-04-29T14:25:41.761Z,8.98
2019-04-29T14:30:43.742Z,7.92
2019-04-29T14:35:48.323Z,7.92
2019-04-29T14:40:51.003Z,7.95
2019-04-29T14:45:52.391Z,8.25
2019-04-29T14:50:54.426Z,8.93
2019-04-29T14:55:56.976Z,7.33
2019-04-29T15:00:58.731Z,7.05
2019-04-29T15:06:00.574Z,6.95
2019-04-29T15:11:04.174Z,7.17
2019-04-29T15:16:09.628Z,7.35
2019-04-29T15:21:09.382Z,6.60
2019-04-29T15:26:11.220Z,5.53
2019-04-29T15:31:14.054Z,5.70
2019-04-29T15:36:16.328Z,6.28
2019-04-29T15:41:17.990Z,6.08
2019-04-29T15:46:19.454Z,6.05
2019-04-29T15:51:20.994Z,5.95
2019-04-29T15:56:28.743Z,5.45
2019-04-29T16:01:28.257Z,5.75
2019-04-29T16:06:28.949Z,5.62
2019-04-29T16:11:33.449Z,5.58
2019-04-29T16:16:34.061Z,5.90
2019-04-29T16:21:39.527Z,6.12
2019-04-29T16:26:39.267Z,6.17
2019-04-29T16:31:40.979Z,5.90
2019-04-29T16:36:43.684Z,6.37
2019-04-29T16:41:50.963Z,6.72
2019-04-29T16:46:49.322Z,6.95
2019-04-29T16:51:53.785Z,7.28
2019-04-29T16:56:55.138Z,8.18
2019-04-29T17:01:56.575Z,8.48
2019-04-29T17:07:11.901Z,8.90
2019-04-29T17:12:01.476Z,8.70
2019-04-29T17:17:02.751Z,8.25
2019-04-29T17:22:24.715Z,8.48
2019-04-29T17:27:07.688Z,8.43
2019-04-29T17:32:09.824Z,7.72
2019-04-29T17:37:12.192Z,8.33
2019-04-29T17:42:13.931Z,7.50
2019-04-29T17:47:15.629Z,8.03
2019-04-29T17:52:17.924Z,8.20
2019-04-29T17:57:28.336Z,8.68
2019-04-29T18:02:23.271Z,8.33
2019-04-29T18:07:25.357Z,8.83
2019-04-29T18:12:27.514Z,9.45
2019-04-29T18:17:31.167Z,9.60
2019-04-29T18:22:32.264Z,9.63
2019-04-29T18:27:35.044Z,9.50
2019-04-29T18:32:42.255Z,9.08
2019-04-29T18:37:41.021Z,9.13
2019-04-29T18:42:43.406Z,10.23
2019-04-29T18:47:45.676Z,9.83
2019-04-29T18:52:47.040Z,10.13
2019-04-29T18:57:48.518Z,10.30
2019-04-29T19:02:57.039Z,11.43
2019-04-29T19:07:57.037Z,9.77
2019-04-29T19:13:00.081Z,10.63
2019-04-29T19:18:02.006Z,12.68
2019-04-29T19:23:07.855Z,12.60
2019-04-29T19:28:15.012Z,11.97
2019-04-29T19:33:09.832Z,12.17
2019-04-29T19:38:13.434Z,11.90
2019-04-29T19:43:17.696Z,12.23
2019-04-29T19:48:17.769Z,12.03
2019-04-29T19:53:19.722Z,11.20
2019-04-29T19:58:28.328Z,11.37
2019-04-29T20:03:35.440Z,11.10
2019-04-29T20:08:50.173Z,10.30
2019-04-29T20:13:34.699Z,10.80
2019-04-29T20:18:40.411Z,10.70
2019-04-29T20:23:39.928Z,10.43
2019-04-29T20:28:41.848Z,10.23
2019-04-29T20:33:46.968Z,9.87
2019-04-29T20:38:47.063Z,11.53
2019-04-29T20:43:48.815Z,12.33
2019-04-29T20:48:54.595Z,13.13
2019-04-29T20:53:53.469Z,14.57
2019-04-29T20:58:55.333Z,14.63
2019-04-29T21:03:57.212Z,14.63
2019-04-29T21:08:58.595Z,14.30
2019-04-29T21:14:00.147Z,13.70
2019-04-29T21:19:01.588Z,13.63
2019-04-29T21:24:08.479Z,13.83
2019-04-29T21:29:06.445Z,13.27
2019-04-29T21:34:07.803Z,12.93
2019-04-29T21:39:09.093Z,13.57
2019-04-29T21:44:10.541Z,12.97
2019-04-29T21:49:12.769Z,12.97
2019-04-29T21:54:15.700Z,13.27
2019-04-29T21:59:17.211Z,12.53
2019-04-29T22:04:18.557Z,12.50
2019-04-29T22:09:20.024Z,11.90
2019-04-29T22:14:21.475Z,11.00
2019-04-29T22:19:24.626Z,11.10
2019-04-29T22:24:27.505Z,11.07
2019-04-29T22:29:37.339Z,10.43
2019-04-29T22:34:38.965Z,10.67
2019-04-29T22:39:40.333Z,11.20
2019-04-29T22:44:41.602Z,10.97
2019-04-29T22:49:42.973Z,10.53
2019-04-29T22:54:45.786Z,10.63
2019-04-29T22:59:49.468Z,10.23
2019-04-29T23:04:53.828Z,9.70
2019-04-29T23:09:55.496Z,10.20
2019-04-29T23:14:58.597Z,10.07
2019-04-29T23:20:00.278Z,10.70
2019-04-29T23:25:01.865Z,9.77
2019-04-29T23:30:04.675Z,9.87
2019-04-29T23:35:09.665Z,9.93
2019-04-29T23:40:09.776Z,9.20
2019-04-29T23:45:14.571Z,9.30
2019-04-29T23:50:18.599Z,9.20
2019-04-29T23:55:20.530Z,8.80
